createdAt,value
2018-06-28T00:01:02.493Z,100470.53
2018-06-28T00:03:28.458Z,100478.34
2018-06-28T00:05:54.476Z,100476.40
2018-06-28T00:08:20.430Z,100474.27
2018-06-28T00:10:46.402Z,100482.61
2018-06-28T00:13:12.357Z,100480.73
2018-06-28T00:15:38.333Z,100472.23
2018-06-28T00:18:04.303Z,100472.88
2018-06-28T00:20:30.274Z,100483.62
2018-06-28T00:22:56.220Z,100486.54
2018-06-28T00:25:22.150Z,100485.35
2018-06-28T00:27:48.113Z,100490.59
2018-06-28T00:30:14.073Z,100480.75
2018-06-28T00:32:40.001Z,100484.89
2018-06-28T00:35:05.994Z,100482.64
2018-06-28T00:37:31.950Z,100482.22
2018-06-28T00:39:57.919Z,100483.25
2018-06-28T00:42:23.905Z,100477.34
2018-06-28T00:44:49.862Z,100480.72
2018-06-28T00:47:15.809Z,100475.42
2018-06-28T00:49:41.784Z,100482.52
2018-06-28T00:52:07.745Z,100481.70
2018-06-28T00:54:33.715Z,100478.78
2018-06-28T00:56:59.688Z,100476.97
2018-06-28T00:59:25.675Z,100480.08
2018-06-28T01:01:51.630Z,100484.22
2018-06-28T01:04:17.589Z,100477.20
2018-06-28T01:06:43.563Z,100479.34
2018-06-28T01:09:09.533Z,100472.92
2018-06-28T01:11:35.485Z,100466.58
2018-06-28T01:14:01.454Z,100466.29
2018-06-28T01:16:27.438Z,100458.70
2018-06-28T01:18:53.400Z,100459.32
2018-06-28T01:21:19.370Z,100450.40
2018-06-28T01:23:45.345Z,100448.48
2018-06-28T01:26:11.316Z,100447.69
2018-06-28T01:28:37.268Z,100452.92
2018-06-28T01:31:03.208Z,100451.86
2018-06-28T01:33:29.168Z,100452.52
2018-06-28T01:35:55.106Z,100449.84
2018-06-28T01:38:21.074Z,100448.08
2018-06-28T01:40:47.029Z,100442.57
2018-06-28T01:43:12.985Z,100443.48
2018-06-28T01:45:38.930Z,100441.19
2018-06-28T01:48:04.884Z,100437.66
2018-06-28T01:50:30.840Z,100440.02
2018-06-28T01:52:56.865Z,100437.95
2018-06-28T01:55:22.807Z,100437.47
2018-06-28T01:57:48.764Z,100434.81
2018-06-28T02:00:14.712Z,100430.31
2018-06-28T02:02:40.686Z,100436.24
2018-06-28T02:05:06.622Z,100437.97
2018-06-28T02:07:32.581Z,100442.04
2018-06-28T02:09:58.517Z,100435.33
2018-06-28T02:12:24.503Z,100437.58
2018-06-28T02:14:50.440Z,100427.24
2018-06-28T02:17:16.402Z,100431.04
2018-06-28T02:19:42.361Z,100428.58
2018-06-28T02:22:08.333Z,100426.78
2018-06-28T02:24:34.283Z,100418.86
2018-06-28T02:27:00.273Z,100418.49
2018-06-28T02:29:26.216Z,100419.03
2018-06-28T02:31:52.186Z,100413.50
2018-06-28T02:34:18.138Z,100408.55
2018-06-28T02:36:44.073Z,100411.45
2018-06-28T02:39:10.045Z,100407.01
2018-06-28T02:41:36.020Z,100406.22
2018-06-28T02:44:01.963Z,100408.74
2018-06-28T02:46:27.914Z,100412.70
2018-06-28T02:48:53.871Z,100407.52
2018-06-28T02:51:19.855Z,100409.77
2018-06-28T02:53:45.811Z,100404.77
2018-06-28T02:56:11.793Z,100403.68
2018-06-28T02:58:37.768Z,100402.70
2018-06-28T03:01:03.722Z,100405.44
2018-06-28T03:03:29.662Z,100404.19
2018-06-28T03:05:55.623Z,100404.16
2018-06-28T03:08:21.573Z,100411.70
2018-06-28T03:10:47.506Z,100416.42
2018-06-28T03:13:13.441Z,100412.19
2018-06-28T03:15:39.436Z,100408.17
2018-06-28T03:18:05.380Z,100402.36
2018-06-28T03:20:31.325Z,100397.34
2018-06-28T03:22:57.313Z,100404.81
2018-06-28T03:25:23.277Z,100396.94
2018-06-28T03:27:49.224Z,100394.47
2018-06-28T03:30:15.186Z,100390.95
2018-06-28T03:32:41.217Z,100387.52
2018-06-28T03:35:07.199Z,100397.14
2018-06-28T03:37:33.302Z,100400.92
2018-06-28T03:39:59.221Z,100402.53
2018-06-28T03:42:25.195Z,100400.49
2018-06-28T03:44:51.176Z,100400.73
2018-06-28T03:47:17.118Z,100407.13
2018-06-28T03:49:43.088Z,100401.88
2018-06-28T03:52:09.077Z,100394.14
2018-06-28T03:54:35.033Z,100393.11
2018-06-28T03:57:01.072Z,100393.73
2018-06-28T03:59:27.042Z,100390.13
2018-06-28T04:01:53.001Z,100391.48
2018-06-28T04:04:18.945Z,100390.00
2018-06-28T04:06:44.919Z,100390.78
2018-06-28T04:09:10.889Z,100391.61
2018-06-28T04:11:36.852Z,100394.62
2018-06-28T04:16:35.287Z,100396.33
2018-06-28T04:19:01.205Z,100399.25
2018-06-28T04:21:27.192Z,100392.56
2018-06-28T04:23:53.170Z,100396.98
2018-06-28T04:26:19.112Z,100402.80
2018-06-28T04:28:45.089Z,100396.53
2018-06-28T04:31:11.081Z,100395.16
2018-06-28T04:33:37.044Z,100392.36
2018-06-28T04:36:03.002Z,100390.82
2018-06-28T04:38:28.991Z,100387.09
2018-06-28T04:40:55.003Z,100391.77
2018-06-28T04:43:20.901Z,100387.73
2018-06-28T04:45:46.860Z,100391.18
2018-06-28T04:48:12.855Z,100394.00
2018-06-28T04:50:38.806Z,100389.99
2018-06-28T04:53:04.766Z,100395.11
2018-06-28T04:55:30.757Z,100383.03
2018-06-28T04:57:56.693Z,100380.22
2018-06-28T05:00:22.667Z,100381.64
2018-06-28T05:02:48.600Z,100374.35
2018-06-28T05:05:14.565Z,100374.85
2018-06-28T05:07:40.514Z,100370.15
2018-06-28T05:10:06.475Z,100371.12
2018-06-28T05:12:32.415Z,100368.49
2018-06-28T05:14:58.376Z,100371.17
2018-06-28T05:17:24.341Z,100370.39
2018-06-28T05:19:50.311Z,100370.59
2018-06-28T05:22:16.299Z,100370.16
2018-06-28T05:24:42.266Z,100364.93
2018-06-28T05:27:08.245Z,100371.87
2018-06-28T05:29:34.212Z,100365.34
2018-06-28T05:32:00.320Z,100361.31
2018-06-28T05:34:26.269Z,100358.44
2018-06-28T05:36:52.251Z,100357.01
2018-06-28T05:39:18.267Z,100349.00
2018-06-28T05:41:44.221Z,100348.69
2018-06-28T05:44:10.212Z,100347.89
2018-06-28T05:46:36.161Z,100343.55
2018-06-28T05:49:02.163Z,100343.81
2018-06-28T05:51:28.145Z,100336.25
2018-06-28T05:53:54.121Z,100347.39
2018-06-28T05:56:20.108Z,100340.93
2018-06-28T05:58:46.181Z,100339.33
2018-06-28T06:01:12.149Z,100339.62
2018-06-28T06:03:38.122Z,100326.86
2018-06-28T06:06:04.340Z,100324.20
2018-06-28T06:08:30.301Z,100326.59
2018-06-28T06:10:56.261Z,100321.83
2018-06-28T06:13:22.211Z,100322.55
2018-06-28T06:15:48.173Z,100326.90
2018-06-28T06:18:14.154Z,100328.28
2018-06-28T06:20:40.168Z,100327.96
2018-06-28T06:23:06.137Z,100332.73
2018-06-28T06:25:32.169Z,100328.33
2018-06-28T06:27:58.069Z,100329.06
2018-06-28T06:30:24.054Z,100329.44
2018-06-28T06:32:50.020Z,100326.58
2018-06-28T06:35:16.007Z,100326.90
2018-06-28T06:37:42.002Z,100322.87
2018-06-28T06:40:08.001Z,100325.98
2018-06-28T06:42:34.006Z,100318.84
2018-06-28T06:44:59.972Z,100318.13
2018-06-28T06:47:25.926Z,100310.55
2018-06-28T06:49:51.915Z,100308.25
2018-06-28T06:52:17.871Z,100305.11
2018-06-28T06:54:43.880Z,100304.99
2018-06-28T06:57:09.873Z,100307.12
2018-06-28T06:59:35.862Z,100301.69
2018-06-28T07:02:01.812Z,100298.73
2018-06-28T07:04:27.791Z,100296.97
2018-06-28T07:06:53.761Z,100295.17
2018-06-28T07:09:19.760Z,100295.64
2018-06-28T07:11:45.756Z,100291.52
2018-06-28T07:14:11.728Z,100286.58
2018-06-28T07:16:37.724Z,100291.87
2018-06-28T07:19:03.758Z,100289.39
2018-06-28T07:21:29.729Z,100284.30
2018-06-28T07:23:55.859Z,100279.27
2018-06-28T07:26:21.728Z,100264.83
2018-06-28T07:28:47.656Z,100265.86
2018-06-28T07:31:13.620Z,100264.83
2018-06-28T07:33:39.577Z,100265.91
2018-06-28T07:36:05.517Z,100252.66
2018-06-28T07:38:31.507Z,100253.41
2018-06-28T07:40:57.462Z,100252.56
2018-06-28T07:43:23.456Z,100255.02
2018-06-28T07:45:49.430Z,100249.19
2018-06-28T07:48:15.396Z,100245.70
2018-06-28T07:50:41.375Z,100240.16
2018-06-28T07:53:07.345Z,100245.05
2018-06-28T07:55:33.327Z,100229.26
2018-06-28T07:57:59.296Z,100237.80
2018-06-28T08:00:25.323Z,100232.17
2018-06-28T08:02:51.308Z,100232.12
2018-06-28T08:05:17.266Z,100228.75
2018-06-28T08:07:43.232Z,100223.05
2018-06-28T08:10:09.193Z,100224.72
2018-06-28T08:12:35.176Z,100217.35
2018-06-28T08:15:01.134Z,100227.87
2018-06-28T08:17:27.110Z,100232.66
2018-06-28T08:19:53.093Z,100234.67
2018-06-28T08:22:19.065Z,100234.56
2018-06-28T08:24:45.109Z,100226.30
2018-06-28T08:27:11.094Z,100220.42
2018-06-28T08:29:37.066Z,100217.12
2018-06-28T08:32:03.029Z,100209.91
2018-06-28T08:34:28.981Z,100209.87
2018-06-28T08:36:54.977Z,100203.21
2018-06-28T08:39:20.942Z,100208.30
2018-06-28T08:41:46.931Z,100198.68
2018-06-28T08:44:12.889Z,100207.63
2018-06-28T08:46:38.876Z,100199.75
2018-06-28T08:49:04.859Z,100197.97
2018-06-28T08:51:30.832Z,100200.47
2018-06-28T08:53:56.821Z,100200.03
2018-06-28T08:56:22.842Z,100193.25
2018-06-28T08:58:48.785Z,100199.06
2018-06-28T09:01:14.745Z,100194.23
2018-06-28T09:03:40.747Z,100207.91
2018-06-28T09:06:06.724Z,100195.33
2018-06-28T09:08:32.757Z,100196.61
2018-06-28T09:10:58.722Z,100188.63
2018-06-28T09:13:24.691Z,100185.16
2018-06-28T09:15:50.673Z,100192.76
2018-06-28T09:18:16.641Z,100191.58
2018-06-28T09:20:42.628Z,100183.14
2018-06-28T09:23:08.680Z,100181.23
2018-06-28T09:25:34.562Z,100182.13
2018-06-28T09:28:00.581Z,100178.88
2018-06-28T09:30:26.557Z,100178.66
2018-06-28T09:32:52.527Z,100187.77
2018-06-28T09:35:18.582Z,100182.81
2018-06-28T09:37:44.562Z,100187.58
2018-06-28T09:40:10.552Z,100176.03
2018-06-28T09:42:36.543Z,100183.25
2018-06-28T09:45:02.495Z,100175.08
2018-06-28T09:47:29.663Z,100173.36
2018-06-28T09:49:55.691Z,100177.81
2018-06-28T09:52:21.647Z,100171.28
2018-06-28T09:54:47.696Z,100167.84
2018-06-28T09:57:13.663Z,100171.70
2018-06-28T09:59:39.616Z,100167.05
2018-06-28T10:02:05.573Z,100160.13
2018-06-28T10:04:31.544Z,100161.91
2018-06-28T10:06:57.559Z,100156.28
2018-06-28T10:09:23.489Z,100152.92
2018-06-28T10:11:49.466Z,100162.13
2018-06-28T10:14:15.463Z,100155.24
2018-06-28T10:16:41.501Z,100146.31
2018-06-28T10:19:07.469Z,100144.53
2018-06-28T10:21:33.461Z,100147.10
2018-06-28T10:23:59.458Z,100147.59
2018-06-28T10:26:25.410Z,100154.42
2018-06-28T10:28:51.415Z,100141.28
2018-06-28T10:31:17.474Z,100139.40
2018-06-28T10:33:43.437Z,100134.31
2018-06-28T10:36:09.427Z,100135.92
2018-06-28T10:38:35.428Z,100136.09
2018-06-28T10:41:01.503Z,100138.71
2018-06-28T10:43:27.465Z,100129.72
2018-06-28T10:45:53.556Z,100140.38
2018-06-28T10:48:19.528Z,100144.28
2018-06-28T10:50:45.501Z,100126.66
2018-06-28T10:53:11.472Z,100136.99
2018-06-28T10:55:37.605Z,100128.06
2018-06-28T10:58:03.616Z,100128.93
2018-06-28T11:00:29.691Z,100130.16
2018-06-28T11:02:55.569Z,100133.82
2018-06-28T11:05:21.523Z,100127.84
2018-06-28T11:07:47.514Z,100120.19
2018-06-28T11:10:13.534Z,100125.88
2018-06-28T11:12:39.530Z,100124.31
2018-06-28T11:15:05.489Z,100118.01
2018-06-28T11:17:31.471Z,100110.57
2018-06-28T11:19:57.433Z,100117.27
2018-06-28T11:22:23.414Z,100109.23
2018-06-28T11:24:49.434Z,100111.37
2018-06-28T11:27:15.483Z,100113.52
2018-06-28T11:29:41.473Z,100112.05
2018-06-28T11:32:07.433Z,100108.63
2018-06-28T11:34:33.385Z,100106.99
2018-06-28T11:36:59.397Z,100105.89
2018-06-28T11:39:25.353Z,100100.48
2018-06-28T11:41:51.314Z,100106.39
2018-06-28T11:44:17.279Z,100103.82
2018-06-28T11:46:43.323Z,100102.95
2018-06-28T11:49:09.327Z,100102.95
2018-06-28T11:51:35.316Z,100102.34
2018-06-28T11:54:01.293Z,100100.87
2018-06-28T11:56:27.256Z,100098.41
2018-06-28T11:58:53.311Z,100099.47
2018-06-28T12:01:19.293Z,100099.70
2018-06-28T12:03:45.304Z,100099.28
2018-06-28T12:06:11.281Z,100101.77
2018-06-28T12:08:37.240Z,100111.64
2018-06-28T12:11:03.217Z,100100.19
2018-06-28T12:13:29.213Z,100115.91
2018-06-28T12:15:55.340Z,100103.06
2018-06-28T12:18:21.309Z,100101.20
2018-06-28T12:20:47.268Z,100103.94
2018-06-28T12:23:13.297Z,100106.27
2018-06-28T12:25:39.279Z,100095.16
2018-06-28T12:28:05.243Z,100088.20
2018-06-28T12:30:31.251Z,100099.51
2018-06-28T12:32:57.242Z,100089.23
2018-06-28T12:35:23.221Z,100084.84
2018-06-28T12:37:49.227Z,100079.32
2018-06-28T12:40:15.204Z,100082.70
2018-06-28T12:42:41.209Z,100081.42
2018-06-28T12:45:07.197Z,100083.44
2018-06-28T12:47:33.226Z,100094.94
2018-06-28T12:49:59.216Z,100101.77
2018-06-28T12:52:25.161Z,100100.92
2018-06-28T12:54:51.138Z,100097.45
2018-06-28T12:57:17.121Z,100100.05
2018-06-28T12:59:43.151Z,100095.69
2018-06-28T13:02:09.103Z,100109.42
2018-06-28T13:04:35.148Z,100113.44
2018-06-28T13:07:01.123Z,100119.75
2018-06-28T13:09:27.076Z,100109.64
2018-06-28T13:11:53.050Z,100108.84
2018-06-28T13:14:19.153Z,100108.84
2018-06-28T13:16:45.133Z,100114.99
2018-06-28T13:19:11.118Z,100118.24
2018-06-28T13:21:37.077Z,100118.24
2018-06-28T13:24:03.136Z,100105.70
2018-06-28T13:26:29.110Z,100106.60
2018-06-28T13:28:55.086Z,100115.28
2018-06-28T13:31:21.214Z,100109.66
2018-06-28T13:33:47.227Z,100105.32
2018-06-28T13:36:13.160Z,100110.02
2018-06-28T13:38:39.125Z,100098.59
2018-06-28T13:41:05.248Z,100100.40
2018-06-28T13:43:31.196Z,100101.09
2018-06-28T13:45:57.167Z,100102.38
2018-06-28T13:48:23.158Z,100096.14
2018-06-28T13:50:49.147Z,100091.15
2018-06-28T13:53:15.096Z,100080.83
2018-06-28T13:55:41.089Z,100079.22
2018-06-28T13:58:07.073Z,100072.86
2018-06-28T14:00:33.024Z,100067.09
2018-06-28T14:02:59.039Z,100069.17
2018-06-28T14:05:25.012Z,100064.09
2018-06-28T14:07:50.981Z,100057.20
2018-06-28T14:10:16.998Z,100059.06
2018-06-28T14:12:42.984Z,100059.23
2018-06-28T14:15:09.011Z,100056.39
2018-06-28T14:17:34.968Z,100046.17
2018-06-28T14:20:00.921Z,100044.63
2018-06-28T14:22:26.901Z,100053.44
2018-06-28T14:24:52.865Z,100051.37
2018-06-28T14:27:18.816Z,100049.12
2018-06-28T14:29:44.752Z,100045.16
2018-06-28T14:32:10.706Z,100050.35
2018-06-28T14:34:36.664Z,100033.23
2018-06-28T14:37:02.630Z,100030.17
2018-06-28T14:39:28.646Z,100028.40
2018-06-28T14:41:54.708Z,100025.91
2018-06-28T14:44:20.651Z,100026.33
2018-06-28T14:46:46.675Z,100016.66
2018-06-28T14:49:12.622Z,100018.05
2018-06-28T14:51:38.589Z,100017.89
2018-06-28T14:54:04.541Z,100015.98
2018-06-28T14:56:30.524Z,100017.67
2018-06-28T14:58:56.475Z,100018.55
2018-06-28T15:01:22.442Z,100026.24
2018-06-28T15:03:48.397Z,100033.94
2018-06-28T15:06:14.370Z,100029.88
2018-06-28T15:08:40.425Z,100028.98
2018-06-28T15:11:06.393Z,100029.30
2018-06-28T15:13:32.360Z,100038.70
2018-06-28T15:15:58.372Z,100040.95
2018-06-28T15:18:24.340Z,100045.11
2018-06-28T15:20:50.309Z,100039.65
2018-06-28T15:23:16.297Z,100033.23
2018-06-28T15:25:42.267Z,100019.91
2018-06-28T15:28:08.232Z,100017.34
2018-06-28T15:30:34.184Z,100013.08
2018-06-28T15:33:00.327Z,100018.62
2018-06-28T15:35:26.272Z,100013.98
2018-06-28T15:37:52.246Z,100012.20
2018-06-28T15:40:18.205Z,100007.78
2018-06-28T15:42:44.193Z,100000.94
2018-06-28T15:45:10.215Z,100004.92
2018-06-28T15:47:36.163Z,100007.95
2018-06-28T15:50:02.154Z,99998.50
2018-06-28T15:52:28.118Z,99992.99
2018-06-28T15:54:54.080Z,99989.03
2018-06-28T15:57:20.031Z,99979.55
2018-06-28T15:59:45.966Z,99978.54
2018-06-28T16:02:11.944Z,99979.17
2018-06-28T16:04:37.911Z,99979.94
2018-06-28T16:07:03.868Z,99979.06
2018-06-28T16:09:29.812Z,99983.67
2018-06-28T16:11:55.770Z,99975.05
2018-06-28T16:14:21.724Z,99974.25
2018-06-28T16:16:47.722Z,99971.25
2018-06-28T16:19:13.825Z,99977.31
2018-06-28T16:21:39.795Z,99972.29
2018-06-28T16:24:05.797Z,99964.31
2018-06-28T16:26:31.756Z,99962.76
2018-06-28T16:28:57.701Z,99969.12
2018-06-28T16:31:23.687Z,99962.76
2018-06-28T16:33:49.637Z,99966.38
2018-06-28T16:36:15.597Z,99963.49
2018-06-28T16:38:41.549Z,99964.31
2018-06-28T16:41:07.584Z,99960.57
2018-06-28T16:43:33.552Z,99960.25
2018-06-28T16:45:59.525Z,99963.66
2018-06-28T16:48:25.549Z,99966.93
2018-06-28T16:50:51.488Z,99966.98
2018-06-28T16:53:17.571Z,99972.17
2018-06-28T16:55:43.539Z,99971.48
2018-06-28T16:58:09.500Z,99971.36
2018-06-28T17:00:35.462Z,99973.25
2018-06-28T17:03:01.515Z,99975.25
2018-06-28T17:05:27.513Z,99972.57
2018-06-28T17:07:53.631Z,99973.14
2018-06-28T17:10:19.612Z,99970.12
2018-06-28T17:12:45.736Z,99973.80
2018-06-28T17:15:11.709Z,99971.83
2018-06-28T17:17:37.716Z,99967.06
2018-06-28T17:20:03.681Z,99968.61
2018-06-28T17:22:29.767Z,99968.13
2018-06-28T17:24:55.740Z,99966.84
2018-06-28T17:27:21.715Z,99959.94
2018-06-28T17:29:47.676Z,99961.33
2018-06-28T17:32:13.883Z,99962.50
2018-06-28T17:34:39.900Z,99962.01
2018-06-28T17:37:05.871Z,99962.01
2018-06-28T17:39:31.861Z,99966.16
2018-06-28T17:41:57.825Z,99965.61
2018-06-28T17:44:23.845Z,99964.77
2018-06-28T17:46:49.859Z,99964.27
2018-06-28T17:49:15.859Z,99961.88
2018-06-28T17:51:41.801Z,99965.25
2018-06-28T17:54:07.925Z,99967.55
2018-06-28T17:56:33.915Z,99964.02
2018-06-28T17:58:59.901Z,99964.58
2018-06-28T18:01:25.900Z,99962.87
2018-06-28T18:03:51.894Z,99958.34
2018-06-28T18:06:17.835Z,99962.25
2018-06-28T18:08:43.844Z,99958.46
2018-06-28T18:11:09.774Z,99955.69
2018-06-28T18:13:35.746Z,99955.95
2018-06-28T18:16:01.705Z,99960.16
2018-06-28T18:18:27.677Z,99574.45
2018-06-28T18:20:53.682Z,99956.80
2018-06-28T18:23:19.706Z,99958.30
2018-06-28T18:25:45.677Z,99949.81
2018-06-28T18:28:11.619Z,99950.58
2018-06-28T18:30:37.603Z,99954.38
2018-06-28T18:33:03.562Z,99949.30
2018-06-28T18:35:29.516Z,99953.83
2018-06-28T18:37:55.601Z,99955.05
2018-06-28T18:40:21.591Z,99954.16
2018-06-28T18:42:47.592Z,99946.34
2018-06-28T18:45:13.607Z,99940.18
2018-06-28T18:47:39.602Z,99941.70
2018-06-28T18:50:06.690Z,99939.09
2018-06-28T18:52:32.676Z,99931.17
2018-06-28T18:54:58.638Z,99927.50
2018-06-28T18:57:24.571Z,99931.42
2018-06-28T18:59:50.650Z,99933.50
2018-06-28T19:02:16.659Z,99930.33
2018-06-28T19:04:42.626Z,99937.86
2018-06-28T19:07:08.582Z,99933.08
2018-06-28T19:09:34.550Z,99936.44
2018-06-28T19:12:00.550Z,99934.31
2018-06-28T19:14:26.743Z,99931.80
2018-06-28T19:16:53.755Z,99932.32
2018-06-28T19:19:19.734Z,99925.01
2018-06-28T19:21:45.718Z,99931.48
2018-06-28T19:24:11.731Z,99933.14
2018-06-28T19:26:37.693Z,99930.25
2018-06-28T19:29:03.665Z,99934.69
2018-06-28T19:31:29.613Z,99939.60
2018-06-28T19:33:55.536Z,99940.39
2018-06-28T19:36:21.676Z,99943.45
2018-06-28T19:38:47.658Z,99939.17
2018-06-28T19:41:13.638Z,99942.96
2018-06-28T19:43:39.671Z,99940.07
2018-06-28T19:46:05.669Z,99945.63
2018-06-28T19:48:31.644Z,99951.36
2018-06-28T19:50:57.658Z,99945.96
2018-06-28T19:53:23.704Z,99945.83
2018-06-28T19:55:49.855Z,99926.20
2018-06-28T19:58:15.873Z,99939.69
2018-06-28T20:00:41.885Z,99938.30
2018-06-28T20:03:07.909Z,99932.48
2018-06-28T20:05:33.934Z,99929.98
2018-06-28T20:07:59.948Z,99932.00
2018-06-28T20:10:25.959Z,99928.64
2018-06-28T20:12:52.008Z,99926.98
2018-06-28T20:15:18.011Z,99923.62
2018-06-28T20:17:44.006Z,99928.20
2018-06-28T20:20:09.988Z,99924.79
2018-06-28T20:22:35.983Z,99923.62
2018-06-28T20:25:01.934Z,99923.92
2018-06-28T20:27:27.903Z,99921.73
2018-06-28T20:29:53.910Z,99933.66
2018-06-28T20:32:19.883Z,99920.84
2018-06-28T20:34:45.872Z,99927.88
2018-06-28T20:37:11.921Z,99924.52
2018-06-28T20:39:37.884Z,99925.39
2018-06-28T20:42:03.865Z,99929.70
2018-06-28T20:44:29.857Z,99927.09
2018-06-28T20:46:55.837Z,99927.58
2018-06-28T20:49:21.825Z,99930.44
2018-06-28T20:51:47.821Z,99929.29
2018-06-28T20:54:13.864Z,99927.09
2018-06-28T20:56:39.832Z,99931.15
2018-06-28T20:59:05.894Z,99930.17
2018-06-28T21:01:31.913Z,99929.32
2018-06-28T21:03:57.900Z,99930.17
2018-06-28T21:06:23.890Z,99931.15
2018-06-28T21:08:49.864Z,99929.54
2018-06-28T21:11:15.838Z,99932.90
2018-06-28T21:13:41.864Z,99930.50
2018-06-28T21:16:07.837Z,99927.72
2018-06-28T21:18:33.797Z,99934.94
2018-06-28T21:20:59.795Z,99932.11
2018-06-28T21:23:25.759Z,99933.33
2018-06-28T21:25:51.743Z,99929.43
2018-06-28T21:28:17.700Z,99932.48
2018-06-28T21:30:43.687Z,99931.04
2018-06-28T21:33:09.658Z,99932.27
2018-06-28T21:35:35.631Z,99933.96
2018-06-28T21:38:01.592Z,99929.22
2018-06-28T21:40:27.534Z,99928.64
2018-06-28T21:42:53.519Z,99935.95
2018-06-28T21:45:19.463Z,99937.18
2018-06-28T21:47:45.444Z,99939.36
2018-06-28T21:50:11.450Z,99939.25
2018-06-28T21:52:37.424Z,99940.59
2018-06-28T21:55:03.425Z,99935.41
2018-06-28T21:57:29.397Z,99936.96
2018-06-28T21:59:55.465Z,99938.24
2018-06-28T22:02:21.448Z,99945.50
2018-06-28T22:04:47.413Z,99935.68
2018-06-28T22:07:13.428Z,99938.08
2018-06-28T22:09:39.394Z,99939.20
2018-06-28T22:12:05.337Z,99931.45
2018-06-28T22:14:31.319Z,99929.78
2018-06-28T22:16:57.322Z,99933.14
2018-06-28T22:19:23.259Z,99936.63
2018-06-28T22:21:49.199Z,99934.91
2018-06-28T22:24:15.205Z,99930.14
2018-06-28T22:26:41.205Z,99930.69
2018-06-28T22:29:07.272Z,99929.30
2018-06-28T22:31:33.245Z,99924.43
2018-06-28T22:33:59.196Z,99925.71
2018-06-28T22:36:25.167Z,99927.00
2018-06-28T22:38:51.229Z,99930.95
2018-06-28T22:41:17.191Z,99928.34
2018-06-28T22:43:43.140Z,99920.64
2018-06-28T22:46:09.086Z,99923.20
2018-06-28T22:48:35.056Z,99921.98
2018-06-28T22:51:01.002Z,99918.38
2018-06-28T22:53:27.035Z,99915.97
2018-06-28T22:55:53.013Z,99914.52
2018-06-28T22:58:18.964Z,99910.20
2018-06-28T23:00:44.915Z,99907.64
2018-06-28T23:03:10.860Z,99908.92
2018-06-28T23:05:36.872Z,99906.88
2018-06-28T23:08:02.841Z,99909.72
2018-06-28T23:10:28.811Z,99907.94
2018-06-28T23:12:54.769Z,99913.51
2018-06-28T23:15:20.706Z,99903.41
2018-06-28T23:17:46.697Z,99914.52
2018-06-28T23:20:12.660Z,99910.73
2018-06-28T23:22:38.630Z,99921.75
2018-06-28T23:25:04.583Z,99913.07
2018-06-28T23:27:30.580Z,99919.30
2018-06-28T23:29:56.539Z,99912.28
2018-06-28T23:32:22.506Z,99916.07
2018-06-28T23:34:48.476Z,99916.54
2018-06-28T23:37:14.416Z,99914.52
2018-06-28T23:39:40.411Z,99914.00
2018-06-28T23:42:06.439Z,99913.35
2018-06-28T23:44:35.915Z,99909.88
2018-06-28T23:47:01.883Z,99906.77
2018-06-28T23:49:27.872Z,99911.05
2018-06-28T23:51:53.806Z,99907.15
2018-06-28T23:54:19.836Z,99916.48
2018-06-28T23:56:45.824Z,99921.99
2018-06-28T23:59:11.750Z,99921.86
